sensor_id;sensor_type;location;lat;lon;timestamp;temperature;humidity
1880;DHT22;49285;49.002;8.390;2023-10-09T00:01:04;17.50;99.90
1880;DHT22;49285;49.002;8.390;2023-10-09T00:03:35;17.50;99.90
1880;DHT22;49285;49.002;8.390;2023-10-09T00:06:02;17.40;99.90
1880;DHT22;49285;49.002;8.390;2023-10-09T00:08:29;17.50;99.90
1880;DHT22;49285;49.002;8.390;2023-10-09T00:11:00;17.50;99.90
1880;DHT22;49285;49.002;8.390;2023-10-09T00:13:40;17.40;99.90
1880;DHT22;49285;49.002;8.390;2023-10-09T00:16:15;17.40;99.90
1880;DHT22;49285;49.002;8.390;2023-10-09T00:18:52;17.40;99.90
1880;DHT22;49285;49.002;8.390;2023-10-09T00:21:20;17.40;99.90
1880;DHT22;49285;49.002;8.390;2023-10-09T00:23:46;17.40;99.90
1880;DHT22;49285;49.002;8.390;2023-10-09T00:26:21;17.40;99.90
1880;DHT22;49285;49.002;8.390;2023-10-09T00:28:47;17.50;99.90
1880;DHT22;49285;49.002;8.390;2023-10-09T00:31:16;17.40;99.90
1880;DHT22;49285;49.002;8.390;2023-10-09T00:33:51;17.40;99.90
1880;DHT22;49285;49.002;8.390;2023-10-09T00:36:18;17.50;99.90
1880;DHT22;49285;49.002;8.390;2023-10-09T00:38:52;17.50;99.90
1880;DHT22;49285;49.002;8.390;2023-10-09T00:41:19;17.50;99.90
1880;DHT22;49285;49.002;8.390;2023-10-09T00:43:50;17.60;99.90
1880;DHT22;49285;49.002;8.390;2023-10-09T00:46:18;17.50;99.90
1880;DHT22;49285;49.002;8.390;2023-10-09T00:48:53;17.50;99.90
1880;DHT22;49285;49.002;8.390;2023-10-09T00:51:19;17.60;99.90
1880;DHT22;49285;49.002;8.390;2023-10-09T00:54:00;17.60;99.90
1880;DHT22;49285;49.002;8.390;2023-10-09T00:56:32;17.60;99.90
1880;DHT22;49285;49.002;8.390;2023-10-09T00:59:05;17.60;99.90
1880;DHT22;49285;49.002;8.390;2023-10-09T01:01:37;17.50;99.90
1880;DHT22;49285;49.002;8.390;2023-10-09T01:04:06;17.60;99.90
1880;DHT22;49285;49.002;8.390;2023-10-09T01:06:45;17.60;99.90
1880;DHT22;49285;49.002;8.390;2023-10-09T01:09:29;17.60;99.90
1880;DHT22;49285;49.002;8.390;2023-10-09T01:11:55;17.50;99.90
1880;DHT22;49285;49.002;8.390;2023-10-09T01:14:26;17.50;99.90
1880;DHT22;49285;49.002;8.390;2023-10-09T01:16:52;17.50;99.90
1880;DHT22;49285;49.002;8.390;2023-10-09T01:19:20;17.50;99.90
1880;DHT22;49285;49.002;8.390;2023-10-09T01:21:50;17.40;99.90
1880;DHT22;49285;49.002;8.390;2023-10-09T01:24:16;17.40;99.90
1880;DHT22;49285;49.002;8.390;2023-10-09T01:26:42;17.40;99.90
1880;DHT22;49285;49.002;8.390;2023-10-09T01:29:13;17.30;99.90
1880;DHT22;49285;49.002;8.390;2023-10-09T01:31:46;17.30;99.90
1880;DHT22;49285;49.002;8.390;2023-10-09T01:34:25;17.40;99.90
1880;DHT22;49285;49.002;8.390;2023-10-09T01:37:04;17.30;99.90
1880;DHT22;49285;49.002;8.390;2023-10-09T01:39:31;17.30;99.90
1880;DHT22;49285;49.002;8.390;2023-10-09T01:42:05;17.20;99.90
1880;DHT22;49285;49.002;8.390;2023-10-09T01:44:32;17.30;99.90
1880;DHT22;49285;49.002;8.390;2023-10-09T01:47:04;17.20;99.90
1880;DHT22;49285;49.002;8.390;2023-10-09T01:49:36;17.10;99.90
1880;DHT22;49285;49.002;8.390;2023-10-09T01:52:10;17.10;99.90
1880;DHT22;49285;49.002;8.390;2023-10-09T01:54:41;17.10;99.90
1880;DHT22;49285;49.002;8.390;2023-10-09T01:57:10;17.10;99.90
1880;DHT22;49285;49.002;8.390;2023-10-09T01:59:42;17.10;99.90
1880;DHT22;49285;49.002;8.390;2023-10-09T02:02:21;17.10;99.90
1880;DHT22;49285;49.002;8.390;2023-10-09T02:05:04;17.10;99.90
1880;DHT22;49285;49.002;8.390;2023-10-09T02:07:37;17.00;99.90
1880;DHT22;49285;49.002;8.390;2023-10-09T02:10:24;17.00;99.90
1880;DHT22;49285;49.002;8.390;2023-10-09T02:12:50;17.00;99.90
1880;DHT22;49285;49.002;8.390;2023-10-09T02:15:19;16.90;99.90
1880;DHT22;49285;49.002;8.390;2023-10-09T02:18:05;16.90;99.90
1880;DHT22;49285;49.002;8.390;2023-10-09T02:20:43;16.90;99.90
1880;DHT22;49285;49.002;8.390;2023-10-09T02:23:11;16.80;99.90
1880;DHT22;49285;49.002;8.390;2023-10-09T02:25:39;16.80;99.90
1880;DHT22;49285;49.002;8.390;2023-10-09T02:28:08;16.80;99.90
1880;DHT22;49285;49.002;8.390;2023-10-09T02:30:34;16.80;99.90
1880;DHT22;49285;49.002;8.390;2023-10-09T02:33:00;16.70;99.90
1880;DHT22;49285;49.002;8.390;2023-10-09T02:35:34;16.80;99.90
1880;DHT22;49285;49.002;8.390;2023-10-09T02:38:04;16.80;99.90
1880;DHT22;49285;49.002;8.390;2023-10-09T02:40:34;16.80;99.90
1880;DHT22;49285;49.002;8.390;2023-10-09T02:43:09;16.80;99.90
1880;DHT22;49285;49.002;8.390;2023-10-09T02:45:43;16.70;99.90
1880;DHT22;49285;49.002;8.390;2023-10-09T02:48:18;16.70;99.90
1880;DHT22;49285;49.002;8.390;2023-10-09T02:50:46;16.70;99.90
1880;DHT22;49285;49.002;8.390;2023-10-09T02:53:12;16.70;99.90
1880;DHT22;49285;49.002;8.390;2023-10-09T02:55:44;16.60;99.90
1880;DHT22;49285;49.002;8.390;2023-10-09T02:58:27;16.60;99.90
1880;DHT22;49285;49.002;8.390;2023-10-09T03:00:53;16.70;99.90
1880;DHT22;49285;49.002;8.390;2023-10-09T03:03:18;16.80;99.90
1880;DHT22;49285;49.002;8.390;2023-10-09T03:05:46;16.70;99.90
1880;DHT22;49285;49.002;8.390;2023-10-09T03:08:11;16.60;99.90
1880;DHT22;49285;49.002;8.390;2023-10-09T03:10:42;16.70;99.90
1880;DHT22;49285;49.002;8.390;2023-10-09T03:13:07;16.60;99.90
1880;DHT22;49285;49.002;8.390;2023-10-09T03:15:33;16.60;99.90
1880;DHT22;49285;49.002;8.390;2023-10-09T03:18:02;16.80;99.90
1880;DHT22;49285;49.002;8.390;2023-10-09T03:20:30;16.80;99.90
1880;DHT22;49285;49.002;8.390;2023-10-09T03:22:56;16.80;99.90
1880;DHT22;49285;49.002;8.390;2023-10-09T03:25:23;16.70;99.90
1880;DHT22;49285;49.002;8.390;2023-10-09T03:27:50;16.80;99.90
1880;DHT22;49285;49.002;8.390;2023-10-09T03:30:18;16.70;99.90
1880;DHT22;49285;49.002;8.390;2023-10-09T03:32:53;16.80;99.90
1880;DHT22;49285;49.002;8.390;2023-10-09T03:35:22;16.70;99.90
1880;DHT22;49285;49.002;8.390;2023-10-09T03:37:59;16.70;99.90
1880;DHT22;49285;49.002;8.390;2023-10-09T03:40:44;16.70;99.90
1880;DHT22;49285;49.002;8.390;2023-10-09T03:43:13;16.80;99.90
1880;DHT22;49285;49.002;8.390;2023-10-09T03:45:39;16.80;99.90
1880;DHT22;49285;49.002;8.390;2023-10-09T03:48:18;16.90;99.90
1880;DHT22;49285;49.002;8.390;2023-10-09T03:51:00;16.80;99.90
1880;DHT22;49285;49.002;8.390;2023-10-09T03:53:37;16.80;99.90
1880;DHT22;49285;49.002;8.390;2023-10-09T03:56:05;16.80;99.90
1880;DHT22;49285;49.002;8.390;2023-10-09T03:58:40;16.80;99.90
1880;DHT22;49285;49.002;8.390;2023-10-09T04:01:19;16.70;99.90
1880;DHT22;49285;49.002;8.390;2023-10-09T04:03:55;16.70;99.90
1880;DHT22;49285;49.002;8.390;2023-10-09T04:06:26;16.70;99.90
1880;DHT22;49285;49.002;8.390;2023-10-09T04:09:05;16.60;99.90
1880;DHT22;49285;49.002;8.390;2023-10-09T04:11:43;16.60;99.90
1880;DHT22;49285;49.002;8.390;2023-10-09T04:14:10;16.50;99.90
1880;DHT22;49285;49.002;8.390;2023-10-09T04:16:50;16.50;99.90
1880;DHT22;49285;49.002;8.390;2023-10-09T04:19:30;16.60;99.90
1880;DHT22;49285;49.002;8.390;2023-10-09T04:22:04;16.50;99.90
1880;DHT22;49285;49.002;8.390;2023-10-09T04:24:34;16.40;99.90
1880;DHT22;49285;49.002;8.390;2023-10-09T04:27:10;16.40;99.90
1880;DHT22;49285;49.002;8.390;2023-10-09T04:29:35;16.40;99.90
1880;DHT22;49285;49.002;8.390;2023-10-09T04:32:04;16.40;99.90
1880;DHT22;49285;49.002;8.390;2023-10-09T04:34:34;16.40;99.90
1880;DHT22;49285;49.002;8.390;2023-10-09T04:37:13;16.40;99.90
1880;DHT22;49285;49.002;8.390;2023-10-09T04:39:39;16.30;99.90
1880;DHT22;49285;49.002;8.390;2023-10-09T04:42:12;16.30;99.90
1880;DHT22;49285;49.002;8.390;2023-10-09T04:44:50;16.30;99.90
1880;DHT22;49285;49.002;8.390;2023-10-09T04:47:43;16.20;99.90
1880;DHT22;49285;49.002;8.390;2023-10-09T04:50:22;16.20;99.90
1880;DHT22;49285;49.002;8.390;2023-10-09T04:52:57;16.20;99.90
1880;DHT22;49285;49.002;8.390;2023-10-09T04:55:43;16.20;99.90
1880;DHT22;49285;49.002;8.390;2023-10-09T04:58:21;16.30;99.90
1880;DHT22;49285;49.002;8.390;2023-10-09T05:00:52;16.30;99.90
1880;DHT22;49285;49.002;8.390;2023-10-09T05:03:24;16.20;99.90
1880;DHT22;49285;49.002;8.390;2023-10-09T05:06:09;16.10;99.90
1880;DHT22;49285;49.002;8.390;2023-10-09T05:08:50;16.10;99.90
1880;DHT22;49285;49.002;8.390;2023-10-09T05:11:22;16.10;99.90
1880;DHT22;49285;49.002;8.390;2023-10-09T05:14:01;16.20;99.90
1880;DHT22;49285;49.002;8.390;2023-10-09T05:16:39;16.00;99.90
1880;DHT22;49285;49.002;8.390;2023-10-09T05:19:23;16.00;99.90
1880;DHT22;49285;49.002;8.390;2023-10-09T05:22:10;15.90;99.90
1880;DHT22;49285;49.002;8.390;2023-10-09T05:25:08;16.00;99.90
1880;DHT22;49285;49.002;8.390;2023-10-09T05:27:41;16.00;99.90
1880;DHT22;49285;49.002;8.390;2023-10-09T05:30:16;16.00;99.90
1880;DHT22;49285;49.002;8.390;2023-10-09T05:32:52;16.00;99.90
1880;DHT22;49285;49.002;8.390;2023-10-09T05:35:22;16.00;99.90
1880;DHT22;49285;49.002;8.390;2023-10-09T05:38:06;16.00;99.90
1880;DHT22;49285;49.002;8.390;2023-10-09T05:40:41;16.00;99.90
1880;DHT22;49285;49.002;8.390;2023-10-09T05:43:09;16.00;99.90
1880;DHT22;49285;49.002;8.390;2023-10-09T05:45:54;16.00;99.90
1880;DHT22;49285;49.002;8.390;2023-10-09T05:48:40;16.10;99.90
1880;DHT22;49285;49.002;8.390;2023-10-09T05:51:06;16.10;99.90
1880;DHT22;49285;49.002;8.390;2023-10-09T05:53:34;16.00;99.90
1880;DHT22;49285;49.002;8.390;2023-10-09T05:56:08;16.10;99.90
1880;DHT22;49285;49.002;8.390;2023-10-09T05:58:53;16.10;99.90
1880;DHT22;49285;49.002;8.390;2023-10-09T06:01:37;16.10;99.90
1880;DHT22;49285;49.002;8.390;2023-10-09T06:04:21;16.20;99.90
1880;DHT22;49285;49.002;8.390;2023-10-09T06:06:59;16.20;99.90
1880;DHT22;49285;49.002;8.390;2023-10-09T06:09:26;16.10;99.90
1880;DHT22;49285;49.002;8.390;2023-10-09T06:12:14;16.20;99.90
1880;DHT22;49285;49.002;8.390;2023-10-09T06:14:59;16.30;99.90
1880;DHT22;49285;49.002;8.390;2023-10-09T06:17:44;16.30;99.90
1880;DHT22;49285;49.002;8.390;2023-10-09T06:20:16;16.40;99.90
1880;DHT22;49285;49.002;8.390;2023-10-09T06:23:01;16.40;99.90
1880;DHT22;49285;49.002;8.390;2023-10-09T06:25:43;16.50;99.90
1880;DHT22;49285;49.002;8.390;2023-10-09T06:28:20;16.40;99.90
1880;DHT22;49285;49.002;8.390;2023-10-09T06:30:58;16.40;99.90
1880;DHT22;49285;49.002;8.390;2023-10-09T06:33:44;16.50;99.90
1880;DHT22;49285;49.002;8.390;2023-10-09T06:36:29;16.60;99.90
1880;DHT22;49285;49.002;8.390;2023-10-09T06:38:56;16.50;99.90
1880;DHT22;49285;49.002;8.390;2023-10-09T06:41:41;16.50;99.90
1880;DHT22;49285;49.002;8.390;2023-10-09T06:44:10;16.50;99.90
1880;DHT22;49285;49.002;8.390;2023-10-09T06:46:56;16.40;99.90
1880;DHT22;49285;49.002;8.390;2023-10-09T06:49:24;16.40;99.90
1880;DHT22;49285;49.002;8.390;2023-10-09T06:51:58;16.40;99.90
1880;DHT22;49285;49.002;8.390;2023-10-09T06:54:40;16.50;99.90
1880;DHT22;49285;49.002;8.390;2023-10-09T06:57:15;16.50;99.90
1880;DHT22;49285;49.002;8.390;2023-10-09T06:59:55;16.60;99.90
1880;DHT22;49285;49.002;8.390;2023-10-09T07:02:40;16.70;99.90
1880;DHT22;49285;49.002;8.390;2023-10-09T07:05:11;16.70;99.90
1880;DHT22;49285;49.002;8.390;2023-10-09T07:07:43;16.80;99.90
1880;DHT22;49285;49.002;8.390;2023-10-09T07:10:20;16.90;99.90
1880;DHT22;49285;49.002;8.390;2023-10-09T07:12:55;17.00;99.90
1880;DHT22;49285;49.002;8.390;2023-10-09T07:15:23;16.90;99.90
1880;DHT22;49285;49.002;8.390;2023-10-09T07:18:07;17.00;99.90
1880;DHT22;49285;49.002;8.390;2023-10-09T07:20:45;17.20;99.90
1880;DHT22;49285;49.002;8.390;2023-10-09T07:23:24;17.20;99.90
1880;DHT22;49285;49.002;8.390;2023-10-09T07:26:01;17.20;99.90
1880;DHT22;49285;49.002;8.390;2023-10-09T07:28:43;17.30;99.90
1880;DHT22;49285;49.002;8.390;2023-10-09T07:31:16;17.30;99.90
1880;DHT22;49285;49.002;8.390;2023-10-09T07:33:52;17.30;99.90
1880;DHT22;49285;49.002;8.390;2023-10-09T07:36:25;17.40;99.90
1880;DHT22;49285;49.002;8.390;2023-10-09T07:39:01;17.50;99.90
1880;DHT22;49285;49.002;8.390;2023-10-09T07:41:31;17.50;99.90
1880;DHT22;49285;49.002;8.390;2023-10-09T07:43:56;17.40;99.90
1880;DHT22;49285;49.002;8.390;2023-10-09T07:46:23;17.40;99.90
1880;DHT22;49285;49.002;8.390;2023-10-09T07:49:07;17.50;99.90
1880;DHT22;49285;49.002;8.390;2023-10-09T07:51:38;17.60;99.90
1880;DHT22;49285;49.002;8.390;2023-10-09T07:54:04;17.60;99.90
1880;DHT22;49285;49.002;8.390;2023-10-09T07:56:33;17.70;99.90
1880;DHT22;49285;49.002;8.390;2023-10-09T07:59:09;17.70;99.90
1880;DHT22;49285;49.002;8.390;2023-10-09T08:01:44;17.80;99.90
1880;DHT22;49285;49.002;8.390;2023-10-09T08:04:21;17.80;99.90
1880;DHT22;49285;49.002;8.390;2023-10-09T08:07:03;17.80;99.90
1880;DHT22;49285;49.002;8.390;2023-10-09T08:09:32;17.90;99.90
1880;DHT22;49285;49.002;8.390;2023-10-09T08:12:11;18.10;99.90
1880;DHT22;49285;49.002;8.390;2023-10-09T08:14:43;18.10;99.90
1880;DHT22;49285;49.002;8.390;2023-10-09T08:17:10;18.20;99.90
1880;DHT22;49285;49.002;8.390;2023-10-09T08:19:48;18.30;99.90
1880;DHT22;49285;49.002;8.390;2023-10-09T08:22:29;18.40;99.90
1880;DHT22;49285;49.002;8.390;2023-10-09T08:24:55;18.40;99.90
1880;DHT22;49285;49.002;8.390;2023-10-09T08:27:25;18.40;99.90
1880;DHT22;49285;49.002;8.390;2023-10-09T08:30:00;18.50;99.90
1880;DHT22;49285;49.002;8.390;2023-10-09T08:32:45;18.60;99.90
1880;DHT22;49285;49.002;8.390;2023-10-09T08:35:29;18.70;99.90
1880;DHT22;49285;49.002;8.390;2023-10-09T08:37:57;18.70;99.90
1880;DHT22;49285;49.002;8.390;2023-10-09T08:40:32;18.80;99.90
1880;DHT22;49285;49.002;8.390;2023-10-09T08:45:37;18.80;99.90
1880;DHT22;49285;49.002;8.390;2023-10-09T08:48:05;18.90;99.90
1880;DHT22;49285;49.002;8.390;2023-10-09T08:50:32;18.90;99.90
1880;DHT22;49285;49.002;8.390;2023-10-09T08:53:00;19.10;99.90
1880;DHT22;49285;49.002;8.390;2023-10-09T08:55:26;19.10;99.90
1880;DHT22;49285;49.002;8.390;2023-10-09T08:57:52;19.20;99.90
1880;DHT22;49285;49.002;8.390;2023-10-09T09:00:18;19.30;99.90
1880;DHT22;49285;49.002;8.390;2023-10-09T09:02:50;19.40;99.90
1880;DHT22;49285;49.002;8.390;2023-10-09T09:05:19;19.50;99.90
1880;DHT22;49285;49.002;8.390;2023-10-09T09:07:45;19.50;99.90
1880;DHT22;49285;49.002;8.390;2023-10-09T09:10:11;19.70;99.90
1880;DHT22;49285;49.002;8.390;2023-10-09T09:12:46;19.80;99.90
1880;DHT22;49285;49.002;8.390;2023-10-09T09:15:19;19.80;99.90
1880;DHT22;49285;49.002;8.390;2023-10-09T09:17:47;20.00;99.90
1880;DHT22;49285;49.002;8.390;2023-10-09T09:20:22;20.20;99.90
1880;DHT22;49285;49.002;8.390;2023-10-09T09:22:53;20.20;99.90
1880;DHT22;49285;49.002;8.390;2023-10-09T09:25:21;20.40;99.90
1880;DHT22;49285;49.002;8.390;2023-10-09T09:27:50;20.50;99.90
1880;DHT22;49285;49.002;8.390;2023-10-09T09:30:26;20.50;99.90
1880;DHT22;49285;49.002;8.390;2023-10-09T09:33:00;20.60;99.90
1880;DHT22;49285;49.002;8.390;2023-10-09T09:35:59;20.80;99.90
1880;DHT22;49285;49.002;8.390;2023-10-09T09:38:29;21.10;99.90
1880;DHT22;49285;49.002;8.390;2023-10-09T09:41:01;21.20;99.90
1880;DHT22;49285;49.002;8.390;2023-10-09T09:43:33;21.50;99.90
1880;DHT22;49285;49.002;8.390;2023-10-09T09:46:01;21.60;99.90
1880;DHT22;49285;49.002;8.390;2023-10-09T09:48:37;21.80;99.90
1880;DHT22;49285;49.002;8.390;2023-10-09T09:51:04;21.80;99.90
1880;DHT22;49285;49.002;8.390;2023-10-09T09:53:34;21.90;99.90
1880;DHT22;49285;49.002;8.390;2023-10-09T09:56:00;21.90;99.90
1880;DHT22;49285;49.002;8.390;2023-10-09T09:58:28;22.00;99.90
1880;DHT22;49285;49.002;8.390;2023-10-09T10:01:11;22.10;99.90
1880;DHT22;49285;49.002;8.390;2023-10-09T10:03:46;22.20;99.90
1880;DHT22;49285;49.002;8.390;2023-10-09T10:06:13;22.30;99.90
1880;DHT22;49285;49.002;8.390;2023-10-09T10:08:42;22.30;99.90
1880;DHT22;49285;49.002;8.390;2023-10-09T10:11:41;22.40;99.90
1880;DHT22;49285;49.002;8.390;2023-10-09T10:14:08;22.40;99.90
1880;DHT22;49285;49.002;8.390;2023-10-09T10:17:01;22.30;99.90
1880;DHT22;49285;49.002;8.390;2023-10-09T10:20:05;22.20;99.90
1880;DHT22;49285;49.002;8.390;2023-10-09T10:22:40;22.20;99.90
1880;DHT22;49285;49.002;8.390;2023-10-09T10:25:32;22.30;99.90
1880;DHT22;49285;49.002;8.390;2023-10-09T10:28:20;22.40;99.90
1880;DHT22;49285;49.002;8.390;2023-10-09T10:31:07;22.50;99.90
1880;DHT22;49285;49.002;8.390;2023-10-09T10:36:22;23.10;99.90
1880;DHT22;49285;49.002;8.390;2023-10-09T10:39:05;23.40;99.90
1880;DHT22;49285;49.002;8.390;2023-10-09T10:41:35;23.60;99.90
1880;DHT22;49285;49.002;8.390;2023-10-09T10:47:03;23.60;99.90
1880;DHT22;49285;49.002;8.390;2023-10-09T10:49:29;23.60;99.90
1880;DHT22;49285;49.002;8.390;2023-10-09T10:52:03;23.60;99.90
1880;DHT22;49285;49.002;8.390;2023-10-09T10:54:42;23.50;99.90
1880;DHT22;49285;49.002;8.390;2023-10-09T10:57:18;23.40;99.90
1880;DHT22;49285;49.002;8.390;2023-10-09T11:00:16;23.40;99.90
1880;DHT22;49285;49.002;8.390;2023-10-09T11:03:01;23.30;99.90
1880;DHT22;49285;49.002;8.390;2023-10-09T11:05:41;23.20;99.90
1880;DHT22;49285;49.002;8.390;2023-10-09T11:08:09;23.20;99.90
1880;DHT22;49285;49.002;8.390;2023-10-09T11:10:35;23.20;99.90
1880;DHT22;49285;49.002;8.390;2023-10-09T11:13:01;23.10;99.90
1880;DHT22;49285;49.002;8.390;2023-10-09T11:15:38;23.10;99.90
1880;DHT22;49285;49.002;8.390;2023-10-09T11:18:11;23.10;99.90
1880;DHT22;49285;49.002;8.390;2023-10-09T11:20:54;23.10;99.90
1880;DHT22;49285;49.002;8.390;2023-10-09T11:23:23;23.10;99.90
1880;DHT22;49285;49.002;8.390;2023-10-09T11:26:03;23.10;99.90
1880;DHT22;49285;49.002;8.390;2023-10-09T11:29:12;23.10;99.90
1880;DHT22;49285;49.002;8.390;2023-10-09T11:32:01;23.40;99.90
1880;DHT22;49285;49.002;8.390;2023-10-09T11:34:28;23.40;99.90
1880;DHT22;49285;49.002;8.390;2023-10-09T11:39:35;23.70;99.90
1880;DHT22;49285;49.002;8.390;2023-10-09T11:42:06;23.70;99.90
1880;DHT22;49285;49.002;8.390;2023-10-09T11:44:40;23.90;99.90
1880;DHT22;49285;49.002;8.390;2023-10-09T11:47:07;24.20;99.90
1880;DHT22;49285;49.002;8.390;2023-10-09T11:49:52;25.00;99.90
1880;DHT22;49285;49.002;8.390;2023-10-09T11:52:24;26.60;99.90
1880;DHT22;49285;49.002;8.390;2023-10-09T11:55:11;27.70;98.40
1880;DHT22;49285;49.002;8.390;2023-10-09T11:57:40;27.90;95.30
1880;DHT22;49285;49.002;8.390;2023-10-09T12:00:07;28.40;94.70
1880;DHT22;49285;49.002;8.390;2023-10-09T12:02:55;29.50;92.70
1880;DHT22;49285;49.002;8.390;2023-10-09T12:05:21;30.80;86.50
1880;DHT22;49285;49.002;8.390;2023-10-09T12:07:49;31.50;80.50
1880;DHT22;49285;49.002;8.390;2023-10-09T12:10:22;32.20;78.30
1880;DHT22;49285;49.002;8.390;2023-10-09T12:12:54;32.40;71.10
1880;DHT22;49285;49.002;8.390;2023-10-09T12:15:23;33.00;68.90
1880;DHT22;49285;49.002;8.390;2023-10-09T12:17:49;34.10;65.20
1880;DHT22;49285;49.002;8.390;2023-10-09T12:20:16;34.30;60.10
1880;DHT22;49285;49.002;8.390;2023-10-09T12:23:00;34.10;60.20
1880;DHT22;49285;49.002;8.390;2023-10-09T12:25:26;33.40;59.10
1880;DHT22;49285;49.002;8.390;2023-10-09T12:27:57;33.60;59.20
1880;DHT22;49285;49.002;8.390;2023-10-09T12:30:23;33.70;57.60
1880;DHT22;49285;49.002;8.390;2023-10-09T12:32:56;34.50;57.40
1880;DHT22;49285;49.002;8.390;2023-10-09T12:35:26;35.00;55.30
1880;DHT22;49285;49.002;8.390;2023-10-09T12:37:54;34.60;55.50
1880;DHT22;49285;49.002;8.390;2023-10-09T12:40:23;33.90;54.90
1880;DHT22;49285;49.002;8.390;2023-10-09T12:42:56;32.50;56.10
1880;DHT22;49285;49.002;8.390;2023-10-09T12:45:24;32.40;57.10
1880;DHT22;49285;49.002;8.390;2023-10-09T12:47:58;32.40;56.70
1880;DHT22;49285;49.002;8.390;2023-10-09T12:50:25;32.30;57.20
1880;DHT22;49285;49.002;8.390;2023-10-09T12:52:57;32.40;57.80
1880;DHT22;49285;49.002;8.390;2023-10-09T12:55:28;33.30;57.10
1880;DHT22;49285;49.002;8.390;2023-10-09T12:58:00;33.20;56.20
1880;DHT22;49285;49.002;8.390;2023-10-09T13:00:32;32.70;56.20
1880;DHT22;49285;49.002;8.390;2023-10-09T13:02:58;32.20;56.50
1880;DHT22;49285;49.002;8.390;2023-10-09T13:05:27;32.00;57.10
1880;DHT22;49285;49.002;8.390;2023-10-09T13:07:53;31.90;56.90
1880;DHT22;49285;49.002;8.390;2023-10-09T13:10:20;32.10;57.00
1880;DHT22;49285;49.002;8.390;2023-10-09T13:12:49;31.90;58.00
1880;DHT22;49285;49.002;8.390;2023-10-09T13:15:21;32.10;58.20
1880;DHT22;49285;49.002;8.390;2023-10-09T13:17:46;32.10;58.40
1880;DHT22;49285;49.002;8.390;2023-10-09T13:20:13;32.10;57.90
1880;DHT22;49285;49.002;8.390;2023-10-09T13:22:42;32.00;56.20
1880;DHT22;49285;49.002;8.390;2023-10-09T13:25:09;31.60;56.70
1880;DHT22;49285;49.002;8.390;2023-10-09T13:27:42;31.20;57.40
1880;DHT22;49285;49.002;8.390;2023-10-09T13:30:08;31.40;57.60
1880;DHT22;49285;49.002;8.390;2023-10-09T13:32:35;31.30;57.10
1880;DHT22;49285;49.002;8.390;2023-10-09T13:35:02;30.60;57.70
1880;DHT22;49285;49.002;8.390;2023-10-09T13:37:31;30.30;58.20
1880;DHT22;49285;49.002;8.390;2023-10-09T13:40:03;30.30;58.70
1880;DHT22;49285;49.002;8.390;2023-10-09T13:42:37;30.30;58.70
1880;DHT22;49285;49.002;8.390;2023-10-09T13:45:03;30.40;58.60
1880;DHT22;49285;49.002;8.390;2023-10-09T13:47:41;30.00;59.00
1880;DHT22;49285;49.002;8.390;2023-10-09T13:50:10;29.70;59.60
1880;DHT22;49285;49.002;8.390;2023-10-09T13:52:35;29.30;60.00
1880;DHT22;49285;49.002;8.390;2023-10-09T13:55:07;28.80;61.70
1880;DHT22;49285;49.002;8.390;2023-10-09T13:57:43;28.60;62.80
1880;DHT22;49285;49.002;8.390;2023-10-09T14:00:16;28.50;63.40
1880;DHT22;49285;49.002;8.390;2023-10-09T14:02:58;28.60;64.10
1880;DHT22;49285;49.002;8.390;2023-10-09T14:05:27;28.80;64.30
1880;DHT22;49285;49.002;8.390;2023-10-09T14:07:53;28.60;64.50
1880;DHT22;49285;49.002;8.390;2023-10-09T14:10:22;28.50;65.40
1880;DHT22;49285;49.002;8.390;2023-10-09T14:12:52;28.30;66.20
1880;DHT22;49285;49.002;8.390;2023-10-09T14:15:19;28.10;66.10
1880;DHT22;49285;49.002;8.390;2023-10-09T14:17:45;28.20;66.00
1880;DHT22;49285;49.002;8.390;2023-10-09T14:20:21;28.10;67.50
1880;DHT22;49285;49.002;8.390;2023-10-09T14:22:58;27.90;68.40
1880;DHT22;49285;49.002;8.390;2023-10-09T14:25:32;27.80;69.30
1880;DHT22;49285;49.002;8.390;2023-10-09T14:27:57;27.70;70.10
1880;DHT22;49285;49.002;8.390;2023-10-09T14:30:23;27.70;70.40
1880;DHT22;49285;49.002;8.390;2023-10-09T14:32:57;27.70;70.50
1880;DHT22;49285;49.002;8.390;2023-10-09T14:35:22;27.50;69.80
1880;DHT22;49285;49.002;8.390;2023-10-09T14:37:52;27.40;70.10
1880;DHT22;49285;49.002;8.390;2023-10-09T14:40:19;27.40;70.50
1880;DHT22;49285;49.002;8.390;2023-10-09T14:42:55;27.30;70.30
1880;DHT22;49285;49.002;8.390;2023-10-09T14:45:24;27.50;70.50
1880;DHT22;49285;49.002;8.390;2023-10-09T14:47:52;27.50;69.80
1880;DHT22;49285;49.002;8.390;2023-10-09T14:50:20;27.50;69.80
1880;DHT22;49285;49.002;8.390;2023-10-09T14:52:48;27.60;69.30
1880;DHT22;49285;49.002;8.390;2023-10-09T14:55:16;27.50;68.30
1880;DHT22;49285;49.002;8.390;2023-10-09T14:57:47;27.50;67.80
1880;DHT22;49285;49.002;8.390;2023-10-09T15:00:13;27.50;68.10
1880;DHT22;49285;49.002;8.390;2023-10-09T15:02:40;27.60;68.00
1880;DHT22;49285;49.002;8.390;2023-10-09T15:05:05;27.60;67.60
1880;DHT22;49285;49.002;8.390;2023-10-09T15:07:35;27.50;67.50
1880;DHT22;49285;49.002;8.390;2023-10-09T15:10:05;27.30;67.70
1880;DHT22;49285;49.002;8.390;2023-10-09T15:12:30;27.30;68.00
1880;DHT22;49285;49.002;8.390;2023-10-09T15:14:56;27.20;67.20
1880;DHT22;49285;49.002;8.390;2023-10-09T15:17:23;27.20;67.30
1880;DHT22;49285;49.002;8.390;2023-10-09T15:19:50;27.10;67.40
1880;DHT22;49285;49.002;8.390;2023-10-09T15:22:22;27.10;67.00
1880;DHT22;49285;49.002;8.390;2023-10-09T15:24:47;27.00;67.10
1880;DHT22;49285;49.002;8.390;2023-10-09T15:27:14;26.80;67.50
1880;DHT22;49285;49.002;8.390;2023-10-09T15:29:40;26.80;68.10
1880;DHT22;49285;49.002;8.390;2023-10-09T15:32:09;26.60;68.20
1880;DHT22;49285;49.002;8.390;2023-10-09T15:34:40;26.60;68.30
1880;DHT22;49285;49.002;8.390;2023-10-09T15:37:07;26.60;68.50
1880;DHT22;49285;49.002;8.390;2023-10-09T15:39:34;26.50;68.60
1880;DHT22;49285;49.002;8.390;2023-10-09T15:42:00;26.50;68.80
1880;DHT22;49285;49.002;8.390;2023-10-09T15:44:29;26.50;68.90
1880;DHT22;49285;49.002;8.390;2023-10-09T15:46:59;26.50;69.40
1880;DHT22;49285;49.002;8.390;2023-10-09T15:49:28;26.40;69.60
1880;DHT22;49285;49.002;8.390;2023-10-09T15:51:56;26.40;70.10
1880;DHT22;49285;49.002;8.390;2023-10-09T15:54:23;26.40;70.40
1880;DHT22;49285;49.002;8.390;2023-10-09T15:56:49;26.30;70.90
1880;DHT22;49285;49.002;8.390;2023-10-09T15:59:15;26.30;71.30
1880;DHT22;49285;49.002;8.390;2023-10-09T16:01:42;26.20;71.90
1880;DHT22;49285;49.002;8.390;2023-10-09T16:04:09;26.10;72.20
1880;DHT22;49285;49.002;8.390;2023-10-09T16:06:35;26.10;72.60
1880;DHT22;49285;49.002;8.390;2023-10-09T16:09:05;26.10;73.60
1880;DHT22;49285;49.002;8.390;2023-10-09T16:11:31;26.00;72.80
1880;DHT22;49285;49.002;8.390;2023-10-09T16:13:59;26.00;73.10
1880;DHT22;49285;49.002;8.390;2023-10-09T16:16:26;25.90;73.70
1880;DHT22;49285;49.002;8.390;2023-10-09T16:18:51;25.80;74.20
1880;DHT22;49285;49.002;8.390;2023-10-09T16:21:17;25.80;74.70
1880;DHT22;49285;49.002;8.390;2023-10-09T16:23:43;25.70;75.00
1880;DHT22;49285;49.002;8.390;2023-10-09T16:26:08;25.70;75.20
1880;DHT22;49285;49.002;8.390;2023-10-09T16:28:35;25.60;75.30
1880;DHT22;49285;49.002;8.390;2023-10-09T16:31:01;25.60;75.90